Time;durP1;ratioP1;P1;durP2;ratioP2;P2;SDS_P1;SDS_P2;PMS_P1;PMS_P2;Temp;Humidity;BMP_temperature;BMP_pressure;BME280_temperature;BME280_humidity;BME280_pressure;Samples;Min_cycle;Max_cycle;Signal;HPM_P1;HPM_P2
2022/10/20 00:00:09;;;;;;;;;;;11.30;99.90;;;;;;5014461;28;19995;-81
2022/10/20 00:02:35;;;;;;;;;;;11.30;99.90;;;;;;5013406;28;19916;-81
2022/10/20 00:05:00;;;;;;;;;;;11.30;99.90;;;;;;5014531;28;19920;-81
2022/10/20 00:07:26;;;;;;;;;;;11.30;99.90;;;;;;5046367;28;19910;-79
2022/10/20 00:09:51;;;;;;;;;;;11.30;99.90;;;;;;5046418;28;19909;-81
2022/10/20 00:12:17;;;;;;;;;;;11.30;99.90;;;;;;5014796;28;19916;-79
2022/10/20 00:14:42;;;;;;;;;;;11.30;99.90;;;;;;5046294;28;20021;-81
2022/10/20 00:17:08;;;;;;;;;;;11.30;99.90;;;;;;5046413;28;19916;-81
2022/10/20 00:19:33;;;;;;;;;;;11.30;99.90;;;;;;5046138;28;19910;-81
2022/10/20 00:21:59;;;;;;;;;;;11.30;99.90;;;;;;5046335;28;19909;-81
2022/10/20 00:24:24;;;;;;;;;;;11.30;99.90;;;;;;5013266;28;19914;-80
2022/10/20 00:26:50;;;;;;;;;;;11.30;99.90;;;;;;5046047;28;19909;-81
2022/10/20 00:29:16;;;;;;;;;;;11.30;99.90;;;;;;5014055;28;20344;-81
2022/10/20 00:31:42;;;;;;;;;;;11.30;99.90;;;;;;5046529;28;19910;-82
2022/10/20 00:34:07;;;;;;;;;;;11.30;99.90;;;;;;5045860;28;19909;-80
2022/10/20 00:36:33;;;;;;;;;;;11.30;99.90;;;;;;5012725;28;20373;-81
2022/10/20 00:38:59;;;;;;;;;;;11.20;99.90;;;;;;5013910;28;19910;-79
2022/10/20 00:41:25;;;;;;;;;;;11.30;99.90;;;;;;5013994;28;19910;-81
2022/10/20 00:43:52;;;;;;;;;;;11.20;99.90;;;;;;5045755;28;19943;-81
2022/10/20 00:46:23;;;;;;;;;;;11.20;99.90;;;;;;5045742;28;19909;-81
2022/10/20 00:48:53;;;;;;;;;;;11.20;99.90;;;;;;5012722;28;19916;-81
2022/10/20 00:51:20;;;;;;;;;;;11.20;99.90;;;;;;5045921;28;19979;-81
2022/10/20 00:53:47;;;;;;;;;;;11.20;99.90;;;;;;5045596;28;19917;-79
2022/10/20 00:56:13;;;;;;;;;;;11.20;99.90;;;;;;5012464;28;19996;-80
2022/10/20 00:58:38;;;;;;;;;;;11.20;99.90;;;;;;5013537;28;19949;-79
2022/10/20 01:01:04;;;;;;;;;;;11.10;99.90;;;;;;5045689;28;19917;-81
2022/10/20 01:03:33;;;;;;;;;;;11.10;99.90;;;;;;5012424;28;19909;-81
2022/10/20 01:05:59;;;;;;;;;;;11.10;99.90;;;;;;5013691;28;19916;-81
2022/10/20 01:08:24;;;;;;;;;;;11.10;99.90;;;;;;5013581;28;19909;-81
2022/10/20 01:11:08;;;;;;;;;;;11.10;99.90;;;;;;5045275;28;19916;-81
2022/10/20 01:13:40;;;;;;;;;;;11.00;99.90;;;;;;5045498;28;20008;-81
2022/10/20 01:16:12;;;;;;;;;;;11.00;99.90;;;;;;5012072;28;19913;-82
2022/10/20 01:18:53;;;;;;;;;;;11.00;99.90;;;;;;5013336;28;19909;-81
2022/10/20 01:21:37;;;;;;;;;;;11.00;99.90;;;;;;5011960;28;19960;-80
2022/10/20 01:24:15;;;;;;;;;;;10.90;99.90;;;;;;5012057;28;19913;-80
2022/10/20 01:26:55;;;;;;;;;;;10.90;99.90;;;;;;5044964;28;20332;-81
2022/10/20 01:29:44;;;;;;;;;;;10.90;99.90;;;;;;5044672;28;19955;-81
2022/10/20 01:32:25;;;;;;;;;;;10.90;99.90;;;;;;4993528;28;19933;-81
2022/10/20 01:35:08;;;;;;;;;;;10.90;99.90;;;;;;5013029;28;19910;-81
2022/10/20 01:37:57;;;;;;;;;;;11.00;99.90;;;;;;5011720;28;19921;-81
2022/10/20 01:40:35;;;;;;;;;;;11.00;99.90;;;;;;5011881;28;20428;-81
2022/10/20 01:43:03;;;;;;;;;;;11.00;99.90;;;;;;5013100;28;19976;-81
2022/10/20 01:45:30;;;;;;;;;;;11.00;99.90;;;;;;5044776;28;19914;-81
2022/10/20 01:47:56;;;;;;;;;;;11.00;99.90;;;;;;5044685;28;19910;-82
2022/10/20 01:50:22;;;;;;;;;;;11.00;99.90;;;;;;5012123;28;19917;-82
2022/10/20 01:52:48;;;;;;;;;;;11.00;99.90;;;;;;5044922;28;19916;-81
2022/10/20 01:55:15;;;;;;;;;;;10.90;99.90;;;;;;5044700;28;19913;-81
2022/10/20 01:57:57;;;;;;;;;;;10.90;99.90;;;;;;5012772;28;20009;-81
2022/10/20 02:00:22;;;;;;;;;;;10.90;99.90;;;;;;5053282;22;19924;-76
2022/10/20 02:03:17;;;;;;;;;;;10.90;99.90;;;;;;5051141;28;19970;-77
2022/10/20 02:06:02;;;;;;;;;;;10.80;99.90;;;;;;5042422;28;19917;-77
2022/10/20 02:08:41;;;;;;;;;;;10.90;99.90;;;;;;5052428;28;19915;-75
2022/10/20 02:11:10;;;;;;;;;;;10.80;99.90;;;;;;5052342;28;19909;-75
2022/10/20 02:13:37;;;;;;;;;;;10.80;99.90;;;;;;5050742;28;19916;-76
2022/10/20 02:16:06;;;;;;;;;;;10.80;99.90;;;;;;5052039;28;19908;-76
2022/10/20 02:18:34;;;;;;;;;;;10.70;99.90;;;;;;5050990;28;19909;-76
2022/10/20 02:21:01;;;;;;;;;;;10.70;99.90;;;;;;5050880;28;19961;-77
2022/10/20 02:23:28;;;;;;;;;;;10.80;99.90;;;;;;5050565;28;19916;-76
2022/10/20 02:25:54;;;;;;;;;;;10.80;99.90;;;;;;5052158;28;19940;-77
2022/10/20 02:28:20;;;;;;;;;;;10.70;99.90;;;;;;5050738;28;19913;-76
2022/10/20 02:30:46;;;;;;;;;;;10.80;99.90;;;;;;5052312;28;19919;-77
2022/10/20 02:33:12;;;;;;;;;;;10.80;99.90;;;;;;5051091;28;19908;-77
2022/10/20 02:35:40;;;;;;;;;;;10.80;99.90;;;;;;5052327;28;20379;-77
2022/10/20 02:38:06;;;;;;;;;;;10.80;99.90;;;;;;5050665;28;19912;-76
2022/10/20 02:40:31;;;;;;;;;;;10.80;99.90;;;;;;5050532;28;20381;-77
2022/10/20 02:42:57;;;;;;;;;;;10.80;99.90;;;;;;5052365;28;19909;-77
2022/10/20 02:45:22;;;;;;;;;;;10.90;99.90;;;;;;5050805;28;19919;-76
2022/10/20 02:47:48;;;;;;;;;;;10.90;99.90;;;;;;5051813;28;20011;-77
2022/10/20 02:50:14;;;;;;;;;;;10.90;99.90;;;;;;5055621;28;19913;-77
2022/10/20 02:52:41;;;;;;;;;;;10.90;99.90;;;;;;5054442;28;19917;-77
2022/10/20 02:55:06;;;;;;;;;;;10.90;99.90;;;;;;5055650;28;19909;-77
2022/10/20 02:57:32;;;;;;;;;;;10.90;99.90;;;;;;5053658;28;19999;-77
2022/10/20 02:59:57;;;;;;;;;;;11.00;99.90;;;;;;5055680;28;20051;-77
2022/10/20 03:02:23;;;;;;;;;;;11.00;99.90;;;;;;5054358;28;20288;-76
2022/10/20 03:04:48;;;;;;;;;;;11.00;99.90;;;;;;5055241;28;19917;-77
2022/10/20 03:07:14;;;;;;;;;;;11.00;99.90;;;;;;5054166;28;19915;-76
2022/10/20 03:09:40;;;;;;;;;;;11.00;99.90;;;;;;5055002;28;19980;-77
2022/10/20 03:12:05;;;;;;;;;;;11.00;99.90;;;;;;5055206;28;20000;-77
2022/10/20 03:14:30;;;;;;;;;;;11.00;99.90;;;;;;5053466;28;19931;-76
2022/10/20 03:16:56;;;;;;;;;;;11.00;99.90;;;;;;5055309;28;19913;-77
2022/10/20 03:19:22;;;;;;;;;;;11.00;99.90;;;;;;5053623;28;19909;-77
2022/10/20 03:21:48;;;;;;;;;;;11.00;99.90;;;;;;5055164;28;19909;-76
2022/10/20 03:24:14;;;;;;;;;;;11.00;99.90;;;;;;5053104;28;19921;-76
2022/10/20 03:26:39;;;;;;;;;;;11.00;99.90;;;;;;5053782;28;19909;-76
2022/10/20 03:29:05;;;;;;;;;;;10.90;99.90;;;;;;5054576;28;19913;-76
2022/10/20 03:31:30;;;;;;;;;;;10.90;99.90;;;;;;5055068;28;19909;-77
2022/10/20 03:33:56;;;;;;;;;;;10.90;99.90;;;;;;5053821;28;19909;-77
2022/10/20 03:36:21;;;;;;;;;;;10.90;99.90;;;;;;5054935;28;19916;-77
2022/10/20 03:38:47;;;;;;;;;;;10.90;99.90;;;;;;5054830;28;19995;-78
2022/10/20 03:41:12;;;;;;;;;;;10.90;99.90;;;;;;5054913;28;19970;-77
2022/10/20 03:43:39;;;;;;;;;;;10.90;99.90;;;;;;5054557;28;19916;-76
2022/10/20 03:46:05;;;;;;;;;;;10.90;99.90;;;;;;5052886;28;19916;-76
2022/10/20 03:48:31;;;;;;;;;;;10.90;99.90;;;;;;5054352;28;20320;-78
2022/10/20 03:50:56;;;;;;;;;;;10.90;99.90;;;;;;5053142;28;19915;-77
2022/10/20 03:53:22;;;;;;;;;;;10.90;99.90;;;;;;5053462;28;19913;-75
2022/10/20 03:55:47;;;;;;;;;;;10.90;99.90;;;;;;5054567;28;19913;-78
2022/10/20 03:58:13;;;;;;;;;;;10.90;99.90;;;;;;5052833;28;19909;-78
2022/10/20 04:00:38;;;;;;;;;;;10.90;99.90;;;;;;5053401;28;19917;-76
2022/10/20 04:03:04;;;;;;;;;;;10.90;99.90;;;;;;5053774;28;20000;-76
2022/10/20 04:05:29;;;;;;;;;;;10.90;99.90;;;;;;5053451;28;19912;-78
2022/10/20 04:07:55;;;;;;;;;;;10.90;99.90;;;;;;5055070;28;19924;-78
2022/10/20 04:10:20;;;;;;;;;;;10.90;99.90;;;;;;5053747;28;19916;-78
2022/10/20 04:12:46;;;;;;;;;;;10.90;99.90;;;;;;5053722;28;20331;-78
2022/10/20 04:15:12;;;;;;;;;;;10.90;99.90;;;;;;5053666;28;19909;-78
2022/10/20 04:17:37;;;;;;;;;;;11.00;99.90;;;;;;5053180;28;19908;-78
2022/10/20 04:20:03;;;;;;;;;;;10.90;99.90;;;;;;5053271;28;19909;-78
2022/10/20 04:22:29;;;;;;;;;;;10.90;99.90;;;;;;5054153;28;19909;-77
2022/10/20 04:24:54;;;;;;;;;;;10.90;99.90;;;;;;5054325;28;19919;-78
2022/10/20 04:27:20;;;;;;;;;;;10.90;99.90;;;;;;5054159;28;19909;-78
2022/10/20 04:29:46;;;;;;;;;;;10.90;99.90;;;;;;5054654;28;20419;-78
2022/10/20 04:32:11;;;;;;;;;;;10.90;99.90;;;;;;5054371;28;19909;-78
2022/10/20 04:34:37;;;;;;;;;;;11.00;99.90;;;;;;5052972;28;20424;-78
2022/10/20 04:37:02;;;;;;;;;;;10.90;99.90;;;;;;5041961;28;20004;-78
2022/10/20 04:39:28;;;;;;;;;;;11.00;99.90;;;;;;5039347;28;19935;-78
2022/10/20 04:41:53;;;;;;;;;;;11.10;99.90;;;;;;5041776;28;20281;-78
2022/10/20 04:44:19;;;;;;;;;;;11.10;99.90;;;;;;5049602;28;19969;-78
2022/10/20 04:46:44;;;;;;;;;;;11.10;99.90;;;;;;5044156;28;20297;-78
2022/10/20 04:49:10;;;;;;;;;;;11.10;99.90;;;;;;5042834;28;19916;-78
2022/10/20 04:51:35;;;;;;;;;;;11.10;99.90;;;;;;5045135;28;19917;-78
2022/10/20 04:54:01;;;;;;;;;;;11.00;99.90;;;;;;5045589;28;19909;-79
2022/10/20 04:56:26;;;;;;;;;;;10.90;99.90;;;;;;5037986;28;19909;-78
2022/10/20 04:58:53;;;;;;;;;;;10.90;99.90;;;;;;5049074;28;19909;-79
2022/10/20 05:01:19;;;;;;;;;;;10.90;99.90;;;;;;5039259;28;20448;-78
2022/10/20 05:03:45;;;;;;;;;;;10.90;99.90;;;;;;5061974;28;19920;-78
2022/10/20 05:06:10;;;;;;;;;;;10.80;99.90;;;;;;5045394;28;20372;-77
2022/10/20 05:08:36;;;;;;;;;;;10.80;99.90;;;;;;5037133;28;19916;-78
2022/10/20 05:11:02;;;;;;;;;;;10.90;99.90;;;;;;5036106;28;19955;-78
2022/10/20 05:13:27;;;;;;;;;;;10.90;99.90;;;;;;5037530;28;19909;-78
2022/10/20 05:15:53;;;;;;;;;;;10.90;99.90;;;;;;5036238;28;19958;-78
2022/10/20 05:18:19;;;;;;;;;;;10.80;99.90;;;;;;5038216;28;19998;-78
2022/10/20 05:20:44;;;;;;;;;;;10.80;99.90;;;;;;5041284;28;19913;-78
2022/10/20 05:23:10;;;;;;;;;;;10.80;99.90;;;;;;5040516;28;19919;-78
2022/10/20 05:25:36;;;;;;;;;;;10.80;99.90;;;;;;5037772;28;19920;-77
2022/10/20 05:28:01;;;;;;;;;;;10.90;99.90;;;;;;5044413;28;19964;-78
2022/10/20 05:30:26;;;;;;;;;;;10.80;99.90;;;;;;5042109;28;19908;-78
2022/10/20 05:32:52;;;;;;;;;;;10.80;99.90;;;;;;5052395;28;19913;-78
2022/10/20 05:35:17;;;;;;;;;;;10.80;99.90;;;;;;5049652;28;19961;-77
2022/10/20 05:37:43;;;;;;;;;;;10.90;99.90;;;;;;5043621;28;20627;-76
2022/10/20 05:40:09;;;;;;;;;;;10.90;99.90;;;;;;5033592;28;19913;-78
2022/10/20 05:42:34;;;;;;;;;;;11.80;99.90;;;;;;5048867;28;19909;-80
2022/10/20 05:45:00;;;;;;;;;;;12.10;99.90;;;;;;5053239;28;19964;-81
2022/10/20 05:47:25;;;;;;;;;;;12.00;99.90;;;;;;5052492;28;19948;-82
2022/10/20 05:49:51;;;;;;;;;;;11.90;99.90;;;;;;5054801;28;20356;-81
2022/10/20 05:52:16;;;;;;;;;;;11.70;99.90;;;;;;5051934;28;19916;-81
2022/10/20 05:54:42;;;;;;;;;;;11.60;99.90;;;;;;5043219;28;19920;-81
2022/10/20 05:57:07;;;;;;;;;;;11.40;99.90;;;;;;5045114;28;19962;-80
2022/10/20 05:59:33;;;;;;;;;;;11.30;99.90;;;;;;5043227;28;19914;-81
2022/10/20 06:01:58;;;;;;;;;;;11.30;99.90;;;;;;5046847;28;19912;-82
2022/10/20 06:04:24;;;;;;;;;;;11.20;99.90;;;;;;5051826;28;19913;-81
2022/10/20 06:06:50;;;;;;;;;;;11.20;99.90;;;;;;5044030;28;19958;-81
2022/10/20 06:09:16;;;;;;;;;;;11.20;99.90;;;;;;5051567;28;19970;-80
2022/10/20 06:11:41;;;;;;;;;;;11.30;99.90;;;;;;5051335;28;19920;-81
2022/10/20 06:14:07;;;;;;;;;;;11.20;99.90;;;;;;5046459;28;19913;-82
2022/10/20 06:16:33;;;;;;;;;;;11.20;99.90;;;;;;5034107;28;19948;-80
2022/10/20 06:18:59;;;;;;;;;;;11.30;99.90;;;;;;5045330;28;20380;-81
2022/10/20 06:21:26;;;;;;;;;;;11.30;99.90;;;;;;5046627;28;19909;-82
2022/10/20 06:23:52;;;;;;;;;;;11.30;99.90;;;;;;5037795;28;19954;-82
2022/10/20 06:26:19;;;;;;;;;;;11.40;99.90;;;;;;5055272;28;20289;-82
2022/10/20 06:28:46;;;;;;;;;;;11.40;99.90;;;;;;5053404;28;19978;-80
2022/10/20 06:31:28;;;;;;;;;;;11.40;99.90;;;;;;5044104;28;19920;-82
2022/10/20 06:33:54;;;;;;;;;;;11.50;99.90;;;;;;5050467;28;19920;-82
2022/10/20 06:36:20;;;;;;;;;;;11.50;99.90;;;;;;5055012;28;20404;-82
2022/10/20 06:38:46;;;;;;;;;;;11.60;99.90;;;;;;5046711;28;19917;-82
2022/10/20 06:41:13;;;;;;;;;;;11.60;99.90;;;;;;5048126;28;20055;-81
2022/10/20 06:43:39;;;;;;;;;;;11.70;99.90;;;;;;5039265;28;19920;-81
2022/10/20 06:46:06;;;;;;;;;;;11.80;99.90;;;;;;5035429;28;19909;-82
2022/10/20 06:48:32;;;;;;;;;;;11.90;99.90;;;;;;5035813;28;19913;-80
2022/10/20 06:50:58;;;;;;;;;;;12.00;99.90;;;;;;5053845;28;19919;-81
2022/10/20 06:53:24;;;;;;;;;;;12.00;99.90;;;;;;5055734;28;19959;-80
2022/10/20 06:56:06;;;;;;;;;;;12.10;99.90;;;;;;5054672;28;19913;-83
2022/10/20 06:58:33;;;;;;;;;;;12.10;99.90;;;;;;5050470;28;19963;-82
2022/10/20 07:01:06;;;;;;;;;;;12.20;99.90;;;;;;5044896;28;19917;-81
2022/10/20 07:03:32;;;;;;;;;;;12.30;99.90;;;;;;5043174;28;20361;-81
2022/10/20 07:05:58;;;;;;;;;;;12.30;99.90;;;;;;5053128;28;20338;-81
2022/10/20 07:08:25;;;;;;;;;;;12.30;99.90;;;;;;5040492;28;20003;-81
2022/10/20 07:11:00;;;;;;;;;;;12.40;99.90;;;;;;5056197;28;19912;-81
2022/10/20 07:13:26;;;;;;;;;;;12.50;99.90;;;;;;5051776;28;19913;-82
2022/10/20 07:15:52;;;;;;;;;;;12.50;99.90;;;;;;5044438;28;19935;-82
2022/10/20 07:18:18;;;;;;;;;;;12.60;99.60;;;;;;5044293;28;19936;-80
2022/10/20 07:20:43;;;;;;;;;;;12.70;99.30;;;;;;5045132;28;20377;-81
2022/10/20 07:23:10;;;;;;;;;;;12.70;97.60;;;;;;5035430;28;19913;-80
2022/10/20 07:25:35;;;;;;;;;;;12.80;96.40;;;;;;5041226;28;19917;-83
2022/10/20 07:28:00;;;;;;;;;;;12.80;96.00;;;;;;5055582;28;19920;-82
2022/10/20 07:30:26;;;;;;;;;;;12.90;95.80;;;;;;5045060;28;19935;-84
2022/10/20 07:32:51;;;;;;;;;;;12.90;95.10;;;;;;5052402;28;19912;-83
2022/10/20 07:35:17;;;;;;;;;;;12.90;95.30;;;;;;5046632;28;19913;-82
2022/10/20 07:37:42;;;;;;;;;;;13.00;94.40;;;;;;5043354;28;19920;-82
2022/10/20 07:40:08;;;;;;;;;;;13.00;94.10;;;;;;5050561;28;19969;-82
2022/10/20 07:42:34;;;;;;;;;;;13.10;93.60;;;;;;5055300;28;20288;-82
2022/10/20 07:44:59;;;;;;;;;;;13.10;93.30;;;;;;5054425;28;19920;-82
2022/10/20 07:47:25;;;;;;;;;;;13.20;93.70;;;;;;5046993;28;19917;-82
2022/10/20 07:49:50;;;;;;;;;;;13.30;93.50;;;;;;5040802;28;20381;-80
2022/10/20 07:52:17;;;;;;;;;;;13.30;93.50;;;;;;5045784;28;20087;-81
2022/10/20 07:54:42;;;;;;;;;;;13.30;93.30;;;;;;5041363;28;20274;-82
2022/10/20 07:57:08;;;;;;;;;;;13.30;93.70;;;;;;5043945;28;19919;-81
2022/10/20 07:59:33;;;;;;;;;;;13.30;93.80;;;;;;5072681;22;19995;-87
2022/10/20 08:01:59;;;;;;;;;;;13.20;93.80;;;;;;5052363;28;19916;-83
2022/10/20 08:04:24;;;;;;;;;;;13.30;93.60;;;;;;5053007;28;19960;-84
2022/10/20 08:06:50;;;;;;;;;;;13.40;93.80;;;;;;5054431;28;20062;-80
2022/10/20 08:09:15;;;;;;;;;;;13.50;94.00;;;;;;5052344;28;19967;-80
2022/10/20 08:11:41;;;;;;;;;;;13.50;93.80;;;;;;5040692;28;20442;-80
2022/10/20 08:14:06;;;;;;;;;;;13.70;92.90;;;;;;5050279;28;19916;-78
2022/10/20 08:16:33;;;;;;;;;;;13.70;92.30;;;;;;5019133;28;19919;-82
2022/10/20 08:18:59;;;;;;;;;;;13.70;91.70;;;;;;5034597;28;19996;-77
2022/10/20 08:21:24;;;;;;;;;;;13.60;91.90;;;;;;5045935;28;19948;-80
2022/10/20 08:23:50;;;;;;;;;;;13.70;92.30;;;;;;5043517;28;19921;-79
2022/10/20 08:26:17;;;;;;;;;;;13.80;92.10;;;;;;5045954;28;19909;-78
2022/10/20 08:28:42;;;;;;;;;;;13.80;90.90;;;;;;5038304;28;20284;-78
2022/10/20 08:31:08;;;;;;;;;;;13.80;90.90;;;;;;5037590;28;19909;-78
2022/10/20 08:33:34;;;;;;;;;;;13.80;91.20;;;;;;5052527;28;20404;-79
2022/10/20 08:36:00;;;;;;;;;;;13.90;96.30;;;;;;5039607;28;20389;-78
2022/10/20 08:38:26;;;;;;;;;;;14.50;94.40;;;;;;5043624;28;19920;-77
2022/10/20 08:40:51;;;;;;;;;;;14.50;92.00;;;;;;5039145;28;19909;-76
2022/10/20 08:43:17;;;;;;;;;;;14.50;89.60;;;;;;5032583;28;20410;-77
2022/10/20 08:45:43;;;;;;;;;;;14.50;88.80;;;;;;5045270;28;20009;-78
2022/10/20 08:48:14;;;;;;;;;;;14.30;89.80;;;;;;5038049;28;19921;-77
2022/10/20 08:50:44;;;;;;;;;;;14.10;88.10;;;;;;5032653;28;19918;-77
2022/10/20 08:53:10;;;;;;;;;;;14.20;99.90;;;;;;5033085;28;19966;-77
2022/10/20 08:55:35;;;;;;;;;;;14.10;99.20;;;;;;5038320;28;19916;-77
2022/10/20 08:58:06;;;;;;;;;;;14.10;96.50;;;;;;5041038;28;20280;-77
2022/10/20 09:00:34;;;;;;;;;;;14.10;97.10;;;;;;5042332;28;19924;-77
2022/10/20 09:03:29;;;;;;;;;;;14.00;89.10;;;;;;5046603;28;19923;-78
2022/10/20 09:06:01;;;;;;;;;;;14.10;96.30;;;;;;5056481;28;20120;-78
2022/10/20 09:08:28;;;;;;;;;;;14.10;88.20;;;;;;5044220;28;19913;-77
2022/10/20 09:10:54;;;;;;;;;;;14.20;87.20;;;;;;5041320;28;20003;-77
2022/10/20 09:13:24;;;;;;;;;;;14.40;84.10;;;;;;5042220;28;19913;-77
2022/10/20 09:15:50;;;;;;;;;;;14.40;84.40;;;;;;5033622;28;19929;-78
2022/10/20 09:18:16;;;;;;;;;;;14.40;85.60;;;;;;5039692;28;19916;-78
2022/10/20 09:20:54;;;;;;;;;;;14.40;84.30;;;;;;5025127;28;20009;-78
2022/10/20 09:23:26;;;;;;;;;;;14.50;84.00;;;;;;5049248;28;20411;-78
2022/10/20 09:25:52;;;;;;;;;;;14.60;82.20;;;;;;5019117;28;19923;-77
2022/10/20 09:28:27;;;;;;;;;;;14.60;82.50;;;;;;5051837;28;19908;-80
2022/10/20 09:30:53;;;;;;;;;;;14.70;82.40;;;;;;5031507;28;20380;-78
2022/10/20 09:33:24;;;;;;;;;;;14.70;82.40;;;;;;5031748;28;19909;-79
2022/10/20 09:35:51;;;;;;;;;;;14.70;82.80;;;;;;5023969;28;19913;-79
2022/10/20 09:38:18;;;;;;;;;;;14.80;82.70;;;;;;5046425;28;19956;-79
2022/10/20 09:40:52;;;;;;;;;;;14.80;82.40;;;;;;5041477;28;20004;-80
2022/10/20 09:43:18;;;;;;;;;;;14.80;81.60;;;;;;5031476;28;19921;-79
2022/10/20 09:45:51;;;;;;;;;;;14.80;81.80;;;;;;5039682;28;19967;-79
2022/10/20 09:48:16;;;;;;;;;;;14.90;79.80;;;;;;5031567;28;19921;-81
2022/10/20 09:50:45;;;;;;;;;;;14.90;79.50;;;;;;5031549;28;20011;-79
2022/10/20 09:53:16;;;;;;;;;;;14.90;81.20;;;;;;5031610;28;19956;-80
2022/10/20 09:55:45;;;;;;;;;;;14.90;81.70;;;;;;5031421;28;19910;-79
2022/10/20 09:58:33;;;;;;;;;;;15.00;79.60;;;;;;5041275;28;19935;-77
2022/10/20 10:01:01;;;;;;;;;;;14.90;79.10;;;;;;5039608;28;19974;-78
2022/10/20 10:03:27;;;;;;;;;;;14.90;80.20;;;;;;5047301;28;20398;-79
2022/10/20 10:05:57;;;;;;;;;;;15.00;80.80;;;;;;5050628;28;19920;-78
2022/10/20 10:08:43;;;;;;;;;;;15.40;86.70;;;;;;5022368;28;20065;-79
2022/10/20 10:11:16;;;;;;;;;;;15.70;80.80;;;;;;5019702;28;19925;-78
2022/10/20 10:13:43;;;;;;;;;;;15.80;79.80;;;;;;5051469;28;19913;-79
2022/10/20 10:16:10;;;;;;;;;;;15.90;79.70;;;;;;5050945;28;19920;-79
2022/10/20 10:18:37;;;;;;;;;;;16.10;80.00;;;;;;5027406;28;19914;-78
2022/10/20 10:21:07;;;;;;;;;;;16.30;78.00;;;;;;5051169;28;20005;-76
2022/10/20 10:23:35;;;;;;;;;;;;;;;;;;5041591;28;19913;-76
2022/10/20 10:26:01;;;;;;;;;;;;;;;;;;5047789;28;19916;-76
2022/10/20 10:28:28;;;;;;;;;;;;;;;;;;5048185;28;19912;-76
2022/10/20 10:30:53;;;;;;;;;;;;;;;;;;5055717;28;20442;-76
2022/10/20 10:33:19;;;;;;;;;;;;;;;;;;5046831;28;19917;-79
2022/10/20 10:35:46;;;;;;;;;;;;;;;;;;5030116;28;19914;-78
2022/10/20 10:38:12;;;;;;;;;;;;;;;;;;5021917;28;20312;-76
2022/10/20 10:40:38;;;;;;;;;;;;;;;;;;5053598;28;19920;-77
2022/10/20 10:43:04;;;;;;;;;;;;;;;;;;5045180;28;19963;-77
2022/10/20 10:45:30;;;;;;;;;;;;;;;;;;5042634;28;20376;-80
2022/10/20 10:47:56;;;;;;;;;;;;;;;;;;5053428;28;19909;-80
2022/10/20 10:50:25;;;;;;;;;;;;;;;;;;5034739;28;20304;-80
2022/10/20 10:52:51;;;;;;;;;;;;;;;;;;5034358;28;19957;-81
2022/10/20 10:55:17;;;;;;;;;;;;;;;;;;5034630;28;19916;-80
2022/10/20 10:57:43;;;;;;;;;;;;;;;;;;5034452;28;19909;-80
2022/10/20 11:00:09;;;;;;;;;;;;;;;;;;5034283;28;20381;-79
2022/10/20 11:02:35;;;;;;;;;;;;;;;;;;5034531;28;19986;-80
2022/10/20 11:05:00;;;;;;;;;;;;;;;;;;5034140;28;19919;-81
2022/10/20 11:07:26;;;;;;;;;;;;;;;;;;5034316;28;19916;-80
2022/10/20 11:09:52;;;;;;;;;;;;;;;;;;5033599;28;20288;-79
2022/10/20 11:12:18;;;;;;;;;;;;;;;;;;5034571;28;20304;-81
2022/10/20 11:14:44;;;;;;;;;;;;;;;;;;5034022;28;19909;-80
2022/10/20 11:17:10;;;;;;;;;;;;;;;;;;5034304;28;19941;-80
2022/10/20 11:19:36;;;;;;;;;;;;;;;;;;5034325;28;19909;-81
2022/10/20 11:22:02;;;;;;;;;;;;;;;;;;5034086;28;19971;-79
2022/10/20 11:24:27;;;;;;;;;;;;;;;;;;5033899;28;19913;-81
2022/10/20 11:26:53;;;;;;;;;;;;;;;;;;5033947;28;19909;-80
2022/10/20 11:29:19;;;;;;;;;;;;;;;;;;5033995;28;20003;-80
2022/10/20 11:31:46;;;;;;;;;;;;;;;;;;5035245;28;19909;-81
2022/10/20 11:34:11;;;;;;;;;;;;;;;;;;5033886;28;19909;-82
2022/10/20 11:36:37;;;;;;;;;;;;;;;;;;5033808;28;19916;-81
2022/10/20 11:39:05;;;;;;;;;;;;;;;;;;5033728;28;19909;-81
2022/10/20 11:41:31;;;;;;;;;;;;;;;;;;5033800;28;19916;-81
2022/10/20 11:43:57;;;;;;;;;;;;;;;;;;5033659;28;19917;-81
2022/10/20 11:46:23;;;;;;;;;;;;;;;;;;5033520;28;19916;-81
2022/10/20 11:48:49;;;;;;;;;;;;;;;;;;5033542;28;19909;-81
2022/10/20 11:51:15;;;;;;;;;;;;;;;;;;5034821;28;19909;-81
2022/10/20 11:53:41;;;;;;;;;;;;;;;;;;5033535;28;19956;-80
2022/10/20 11:56:06;;;;;;;;;;;;;;;;;;5033429;28;19909;-81
2022/10/20 11:58:32;;;;;;;;;;;;;;;;;;5033409;28;19948;-81
2022/10/20 12:00:58;;;;;;;;;;;;;;;;;;5033319;28;19917;-81
2022/10/20 12:03:24;;;;;;;;;;;;;;;;;;5033773;28;19916;-81
2022/10/20 12:05:50;;;;;;;;;;;;;;;;;;5033146;28;20373;-80
2022/10/20 12:08:18;;;;;;;;;;;;;;;;;;5033291;28;20369;-81
2022/10/20 12:10:44;;;;;;;;;;;;;;;;;;5033305;28;19909;-82
2022/10/20 12:13:10;;;;;;;;;;;;;;;;;;5034620;28;19913;-82
2022/10/20 12:15:36;;;;;;;;;;;;;;;;;;5033806;28;19932;-82
2022/10/20 12:18:02;;;;;;;;;;;;;;;;;;5048759;28;19964;-82
2022/10/20 12:20:28;;;;;;;;;;;;;;;;;;5058727;28;19944;-82
2022/10/20 12:22:53;;;;;;;;;;;;;;;;;;5048804;28;20003;-82
2022/10/20 12:25:19;;;;;;;;;;;;;;;;;;5034089;28;19917;-82
2022/10/20 12:27:45;;;;;;;;;;;;;;;;;;5033277;28;19917;-82
2022/10/20 12:30:11;;;;;;;;;;;;;;;;;;5034606;28;19916;-82
2022/10/20 12:32:38;;;;;;;;;;;;;;;;;;5033032;28;19909;-81
2022/10/20 12:35:04;;;;;;;;;;;;;;;;;;5032905;28;19910;-82
2022/10/20 12:37:29;;;;;;;;;;;;;;;;;;5033208;28;19916;-82
2022/10/20 12:39:55;;;;;;;;;;;;;;;;;;5032990;28;19960;-82
2022/10/20 12:42:21;;;;;;;;;;;;;;;;;;5032552;28;19909;-80
2022/10/20 12:44:47;;;;;;;;;;;;;;;;;;5032305;28;20369;-80
2022/10/20 12:47:13;;;;;;;;;;;;;;;;;;5031996;28;19909;-79
2022/10/20 12:49:39;;;;;;;;;;;;;;;;;;5031953;28;20437;-80
2022/10/20 12:52:06;;;;;;;;;;;;;;;;;;5032329;28;19984;-80
2022/10/20 12:54:33;;;;;;;;;;;;;;;;;;5032206;28;20446;-79
2022/10/20 12:56:59;;;;;;;;;;;;;;;;;;5032201;28;19932;-79
2022/10/20 12:59:26;;;;;;;;;;;;;;;;;;5031827;28;20369;-81
2022/10/20 13:01:52;;;;;;;;;;;;;;;;;;5032199;28;19924;-79
2022/10/20 13:04:18;;;;;;;;;;;;;;;;;;5032015;28;19913;-79
2022/10/20 13:06:44;;;;;;;;;;;;;;;;;;5031618;28;20404;-80
2022/10/20 13:09:10;;;;;;;;;;;;;;;;;;5031617;28;19921;-80
2022/10/20 13:11:43;;;;;;;;;;;;;;;;;;5033023;28;20270;-78
2022/10/20 13:14:09;;;;;;;;;;;;;;;;;;5032128;28;19916;-78
2022/10/20 13:16:35;;;;;;;;;;;;;;;;;;5033211;28;19909;-77
2022/10/20 13:19:01;;;;;;;;;;;;;;;;;;5032722;28;19909;-78
2022/10/20 13:21:26;;;;;;;;;;;;;;;;;;5032101;28;19909;-77
2022/10/20 13:23:52;;;;;;;;;;;;;;;;;;5032061;28;20380;-78
2022/10/20 13:26:18;;;;;;;;;;;;;;;;;;5031790;28;19917;-78
2022/10/20 13:28:44;;;;;;;;;;;;;;;;;;5033336;28;19996;-78
2022/10/20 13:31:10;;;;;;;;;;;;;;;;;;5030917;28;19913;-80
2022/10/20 13:33:36;;;;;;;;;;;;;;;;;;5033097;28;20403;-79
2022/10/20 13:36:02;;;;;;;;;;;;;;;;;;5031861;28;20019;-79
2022/10/20 13:38:28;;;;;;;;;;;;;;;;;;5031563;28;19953;-78
2022/10/20 13:40:54;;;;;;;;;;;;;;;;;;5031525;28;20373;-79
2022/10/20 13:43:19;;;;;;;;;;;;;;;;;;5031871;28;19954;-78
2022/10/20 13:45:45;;;;;;;;;;;;;;;;;;5032769;28;19913;-79
2022/10/20 13:48:11;;;;;;;;;;;;;;;;;;5031541;28;19909;-78
2022/10/20 13:50:37;;;;;;;;;;;;;;;;;;5031383;28;19936;-78
2022/10/20 13:53:03;;;;;;;;;;;;;;;;;;5031776;28;19920;-77
2022/10/20 13:55:29;;;;;;;;;;;;;;;;;;5032932;28;19932;-78
2022/10/20 13:57:55;;;;;;;;;;;;;;;;;;5032894;28;20602;-79
2022/10/20 14:00:21;;;;;;;;;;;;;;;;;;5058808;23;19933;-76
2022/10/20 14:02:47;;;;;;;;;;;;;;;;;;5065441;28;19963;-77
2022/10/20 14:05:12;;;;;;;;;;;;;;;;;;5070020;28;19974;-77
2022/10/20 14:07:38;;;;;;;;;;;;;;;;;;5071102;28;19919;-78
2022/10/20 14:10:05;;;;;;;;;;;15.10;82.30;;;;;;5065245;28;20060;-78
2022/10/20 14:12:31;;;;;;;;;;;15.10;83.00;;;;;;5065776;28;19962;-79
2022/10/20 14:14:57;;;;;;;;;;;15.10;83.40;;;;;;5065607;28;20357;-77
2022/10/20 14:17:24;;;;;;;;;;;15.20;84.30;;;;;;5063018;28;19913;-77
2022/10/20 14:19:49;;;;;;;;;;;15.20;82.90;;;;;;5071460;28;20280;-79
2022/10/20 14:22:15;;;;;;;;;;;15.10;83.50;;;;;;5065022;28;19912;-77
2022/10/20 14:24:41;;;;;;;;;;;14.70;85.70;;;;;;5071403;28;20054;-76
2022/10/20 14:27:13;;;;;;;;;;;14.70;86.60;;;;;;5072614;28;19919;-77
2022/10/20 14:29:39;;;;;;;;;;;14.50;87.40;;;;;;5051779;28;19919;-77
2022/10/20 14:32:05;;;;;;;;;;;14.40;88.80;;;;;;5064826;28;19921;-78
2022/10/20 14:34:33;;;;;;;;;;;14.30;90.00;;;;;;5069680;28;19919;-78
2022/10/20 14:36:59;;;;;;;;;;;14.30;90.50;;;;;;5071689;28;19916;-79
2022/10/20 14:39:30;;;;;;;;;;;14.20;90.10;;;;;;5061328;28;19974;-78
2022/10/20 14:41:57;;;;;;;;;;;14.20;91.00;;;;;;5051632;28;19919;-78
2022/10/20 14:44:23;;;;;;;;;;;14.30;91.90;;;;;;5067212;28;20354;-78
2022/10/20 14:46:49;;;;;;;;;;;14.30;91.50;;;;;;5051364;28;19995;-77
2022/10/20 14:49:16;;;;;;;;;;;14.30;91.20;;;;;;5067131;28;19963;-77